sensor_id;sensor_type;location;lat;lon;timestamp;P1;durP1;ratioP1;P2;durP2;ratioP2
13868;SDS011;7004;48.206;16.402;2024-03-02T00:00:53;69.80;;;44.63;;
13868;SDS011;7004;48.206;16.402;2024-03-02T00:03:39;74.17;;;45.57;;
13868;SDS011;7004;48.206;16.402;2024-03-02T00:06:10;63.57;;;41.40;;
13868;SDS011;7004;48.206;16.402;2024-03-02T00:08:37;65.60;;;42.40;;
13868;SDS011;7004;48.206;16.402;2024-03-02T00:11:04;66.07;;;42.83;;
13868;SDS011;7004;48.206;16.402;2024-03-02T00:13:34;71.37;;;45.30;;
13868;SDS011;7004;48.206;16.402;2024-03-02T00:16:01;73.70;;;45.80;;
13868;SDS011;7004;48.206;16.402;2024-03-02T00:18:34;73.47;;;44.03;;
13868;SDS011;7004;48.206;16.402;2024-03-02T00:21:02;68.13;;;45.27;;
13868;SDS011;7004;48.206;16.402;2024-03-02T00:23:32;73.30;;;44.77;;
13868;SDS011;7004;48.206;16.402;2024-03-02T00:26:00;70.17;;;44.40;;
13868;SDS011;7004;48.206;16.402;2024-03-02T00:28:36;73.33;;;45.30;;
13868;SDS011;7004;48.206;16.402;2024-03-02T00:31:08;74.80;;;44.63;;
13868;SDS011;7004;48.206;16.402;2024-03-02T00:33:44;76.77;;;45.57;;
13868;SDS011;7004;48.206;16.402;2024-03-02T00:36:16;75.27;;;44.40;;
13868;SDS011;7004;48.206;16.402;2024-03-02T00:38:51;72.30;;;45.17;;
13868;SDS011;7004;48.206;16.402;2024-03-02T00:41:32;72.37;;;44.10;;
13868;SDS011;7004;48.206;16.402;2024-03-02T00:44:01;73.20;;;45.70;;
13868;SDS011;7004;48.206;16.402;2024-03-02T00:46:42;74.23;;;44.97;;
13868;SDS011;7004;48.206;16.402;2024-03-02T00:49:21;68.37;;;42.63;;
13868;SDS011;7004;48.206;16.402;2024-03-02T00:51:50;70.97;;;43.67;;
13868;SDS011;7004;48.206;16.402;2024-03-02T00:54:22;70.53;;;43.90;;
13868;SDS011;7004;48.206;16.402;2024-03-02T00:56:52;68.43;;;44.37;;
13868;SDS011;7004;48.206;16.402;2024-03-02T00:59:20;76.20;;;44.90;;
13868;SDS011;7004;48.206;16.402;2024-03-02T01:01:48;64.00;;;42.27;;
13868;SDS011;7004;48.206;16.402;2024-03-02T01:04:17;68.23;;;43.43;;
13868;SDS011;7004;48.206;16.402;2024-03-02T01:06:45;65.53;;;41.57;;
13868;SDS011;7004;48.206;16.402;2024-03-02T01:09:12;70.10;;;43.93;;
13868;SDS011;7004;48.206;16.402;2024-03-02T01:11:41;68.47;;;43.83;;
13868;SDS011;7004;48.206;16.402;2024-03-02T01:14:11;66.97;;;42.83;;
13868;SDS011;7004;48.206;16.402;2024-03-02T01:16:57;73.10;;;44.37;;
13868;SDS011;7004;48.206;16.402;2024-03-02T01:19:43;64.47;;;40.40;;
13868;SDS011;7004;48.206;16.402;2024-03-02T01:22:24;61.47;;;38.53;;
13868;SDS011;7004;48.206;16.402;2024-03-02T01:24:53;56.17;;;37.90;;
13868;SDS011;7004;48.206;16.402;2024-03-02T01:27:21;51.23;;;37.27;;
13868;SDS011;7004;48.206;16.402;2024-03-02T01:29:55;61.57;;;39.47;;
13868;SDS011;7004;48.206;16.402;2024-03-02T01:32:28;59.60;;;39.63;;
13868;SDS011;7004;48.206;16.402;2024-03-02T01:34:56;63.57;;;41.53;;
13868;SDS011;7004;48.206;16.402;2024-03-02T01:37:41;65.57;;;42.10;;
13868;SDS011;7004;48.206;16.402;2024-03-02T01:40:10;67.63;;;42.67;;
13868;SDS011;7004;48.206;16.402;2024-03-02T01:42:38;73.93;;;44.80;;
13868;SDS011;7004;48.206;16.402;2024-03-02T01:45:13;72.30;;;44.27;;
13868;SDS011;7004;48.206;16.402;2024-03-02T01:47:40;68.57;;;43.80;;
13868;SDS011;7004;48.206;16.402;2024-03-02T01:50:07;62.53;;;41.17;;
13868;SDS011;7004;48.206;16.402;2024-03-02T01:52:36;71.43;;;42.60;;
13868;SDS011;7004;48.206;16.402;2024-03-02T01:55:02;65.03;;;40.80;;
13868;SDS011;7004;48.206;16.402;2024-03-02T01:57:30;68.33;;;41.40;;
13868;SDS011;7004;48.206;16.402;2024-03-02T01:59:57;75.20;;;45.03;;
13868;SDS011;7004;48.206;16.402;2024-03-02T02:02:24;82.87;;;49.17;;
13868;SDS011;7004;48.206;16.402;2024-03-02T02:04:51;70.17;;;45.53;;
13868;SDS011;7004;48.206;16.402;2024-03-02T02:07:17;82.83;;;49.57;;
13868;SDS011;7004;48.206;16.402;2024-03-02T02:09:43;66.30;;;43.63;;
13868;SDS011;7004;48.206;16.402;2024-03-02T02:12:13;63.67;;;41.63;;
13868;SDS011;7004;48.206;16.402;2024-03-02T02:14:46;80.40;;;47.80;;
13868;SDS011;7004;48.206;16.402;2024-03-02T02:17:16;72.40;;;43.20;;
13868;SDS011;7004;48.206;16.402;2024-03-02T02:19:42;83.73;;;49.13;;
13868;SDS011;7004;48.206;16.402;2024-03-02T02:22:12;64.27;;;41.77;;
13868;SDS011;7004;48.206;16.402;2024-03-02T02:24:41;62.83;;;41.50;;
13868;SDS011;7004;48.206;16.402;2024-03-02T02:27:11;66.13;;;43.60;;
13868;SDS011;7004;48.206;16.402;2024-03-02T02:29:43;57.17;;;39.70;;
13868;SDS011;7004;48.206;16.402;2024-03-02T02:32:14;65.83;;;41.43;;
13868;SDS011;7004;48.206;16.402;2024-03-02T02:34:41;58.50;;;37.83;;
13868;SDS011;7004;48.206;16.402;2024-03-02T02:37:07;61.33;;;39.67;;
13868;SDS011;7004;48.206;16.402;2024-03-02T02:39:33;59.73;;;40.03;;
13868;SDS011;7004;48.206;16.402;2024-03-02T02:42:01;61.33;;;40.80;;
13868;SDS011;7004;48.206;16.402;2024-03-02T02:44:28;60.17;;;41.47;;
13868;SDS011;7004;48.206;16.402;2024-03-02T02:46:54;61.67;;;41.60;;
13868;SDS011;7004;48.206;16.402;2024-03-02T02:49:22;66.73;;;43.57;;
13868;SDS011;7004;48.206;16.402;2024-03-02T02:51:48;67.80;;;44.37;;
13868;SDS011;7004;48.206;16.402;2024-03-02T02:54:14;75.73;;;47.20;;
13868;SDS011;7004;48.206;16.402;2024-03-02T02:56:41;58.07;;;40.63;;
13868;SDS011;7004;48.206;16.402;2024-03-02T02:59:07;62.70;;;42.40;;
13868;SDS011;7004;48.206;16.402;2024-03-02T03:01:34;68.70;;;45.10;;
13868;SDS011;7004;48.206;16.402;2024-03-02T03:04:00;64.07;;;42.50;;
13868;SDS011;7004;48.206;16.402;2024-03-02T03:06:26;59.30;;;41.10;;
13868;SDS011;7004;48.206;16.402;2024-03-02T03:08:53;68.97;;;43.00;;
13868;SDS011;7004;48.206;16.402;2024-03-02T03:11:21;62.90;;;41.73;;
13868;SDS011;7004;48.206;16.402;2024-03-02T03:13:50;60.60;;;40.77;;
13868;SDS011;7004;48.206;16.402;2024-03-02T03:16:16;64.30;;;42.93;;
13868;SDS011;7004;48.206;16.402;2024-03-02T03:18:43;63.60;;;42.90;;
13868;SDS011;7004;48.206;16.402;2024-03-02T03:21:29;62.17;;;41.77;;
13868;SDS011;7004;48.206;16.402;2024-03-02T03:23:55;62.57;;;41.97;;
13868;SDS011;7004;48.206;16.402;2024-03-02T03:26:25;70.80;;;43.33;;
13868;SDS011;7004;48.206;16.402;2024-03-02T03:28:52;72.33;;;45.63;;
13868;SDS011;7004;48.206;16.402;2024-03-02T03:31:19;70.17;;;43.40;;
13868;SDS011;7004;48.206;16.402;2024-03-02T03:33:46;67.03;;;43.90;;
13868;SDS011;7004;48.206;16.402;2024-03-02T03:36:16;75.77;;;44.03;;
13868;SDS011;7004;48.206;16.402;2024-03-02T03:38:46;66.57;;;42.83;;
13868;SDS011;7004;48.206;16.402;2024-03-02T03:41:14;72.10;;;44.40;;
13868;SDS011;7004;48.206;16.402;2024-03-02T03:43:43;69.77;;;45.03;;
13868;SDS011;7004;48.206;16.402;2024-03-02T03:46:10;67.80;;;42.97;;
13868;SDS011;7004;48.206;16.402;2024-03-02T03:48:36;75.00;;;44.77;;
13868;SDS011;7004;48.206;16.402;2024-03-02T03:51:07;73.63;;;44.87;;
13868;SDS011;7004;48.206;16.402;2024-03-02T03:53:33;80.57;;;47.10;;
13868;SDS011;7004;48.206;16.402;2024-03-02T03:55:59;81.67;;;46.33;;
13868;SDS011;7004;48.206;16.402;2024-03-02T03:58:25;87.17;;;47.67;;
13868;SDS011;7004;48.206;16.402;2024-03-02T04:00:52;87.07;;;48.80;;
13868;SDS011;7004;48.206;16.402;2024-03-02T04:03:19;87.27;;;48.00;;
13868;SDS011;7004;48.206;16.402;2024-03-02T04:05:50;83.27;;;45.47;;
13868;SDS011;7004;48.206;16.402;2024-03-02T04:08:16;75.70;;;42.77;;
13868;SDS011;7004;48.206;16.402;2024-03-02T04:10:43;61.30;;;39.93;;
13868;SDS011;7004;48.206;16.402;2024-03-02T04:13:09;63.10;;;39.73;;
13868;SDS011;7004;48.206;16.402;2024-03-02T04:15:41;61.60;;;40.40;;
13868;SDS011;7004;48.206;16.402;2024-03-02T04:18:12;60.47;;;40.20;;
13868;SDS011;7004;48.206;16.402;2024-03-02T04:20:42;67.67;;;41.47;;
13868;SDS011;7004;48.206;16.402;2024-03-02T04:23:10;66.90;;;41.80;;
13868;SDS011;7004;48.206;16.402;2024-03-02T04:25:39;59.53;;;39.53;;
13868;SDS011;7004;48.206;16.402;2024-03-02T04:28:09;59.93;;;37.73;;
13868;SDS011;7004;48.206;16.402;2024-03-02T04:30:38;57.57;;;37.40;;
13868;SDS011;7004;48.206;16.402;2024-03-02T04:33:05;56.40;;;37.50;;
13868;SDS011;7004;48.206;16.402;2024-03-02T04:35:54;55.57;;;36.17;;
13868;SDS011;7004;48.206;16.402;2024-03-02T04:38:32;59.93;;;37.83;;
13868;SDS011;7004;48.206;16.402;2024-03-02T04:41:01;72.77;;;40.87;;
13868;SDS011;7004;48.206;16.402;2024-03-02T04:43:30;75.00;;;41.13;;
13868;SDS011;7004;48.206;16.402;2024-03-02T04:46:00;65.90;;;41.07;;
13868;SDS011;7004;48.206;16.402;2024-03-02T04:50:15;79.73;;;40.83;;
13868;SDS011;7004;48.206;16.402;2024-03-02T04:52:47;71.83;;;40.73;;
13868;SDS011;7004;48.206;16.402;2024-03-02T04:55:15;74.87;;;43.20;;
13868;SDS011;7004;48.206;16.402;2024-03-02T04:57:43;80.73;;;41.27;;
13868;SDS011;7004;48.206;16.402;2024-03-02T05:00:15;109.57;;;43.33;;
13868;SDS011;7004;48.206;16.402;2024-03-02T05:02:44;83.80;;;42.50;;
13868;SDS011;7004;48.206;16.402;2024-03-02T05:05:11;96.30;;;44.30;;
13868;SDS011;7004;48.206;16.402;2024-03-02T05:07:41;90.40;;;41.87;;
13868;SDS011;7004;48.206;16.402;2024-03-02T05:10:11;87.73;;;41.10;;
13868;SDS011;7004;48.206;16.402;2024-03-02T05:12:43;103.77;;;43.07;;
13868;SDS011;7004;48.206;16.402;2024-03-02T05:15:10;143.30;;;41.70;;
13868;SDS011;7004;48.206;16.402;2024-03-02T05:17:42;117.13;;;40.07;;
13868;SDS011;7004;48.206;16.402;2024-03-02T05:20:28;109.43;;;40.40;;
13868;SDS011;7004;48.206;16.402;2024-03-02T05:23:14;111.33;;;40.17;;
13868;SDS011;7004;48.206;16.402;2024-03-02T05:25:40;76.57;;;40.70;;
13868;SDS011;7004;48.206;16.402;2024-03-02T05:28:07;124.90;;;39.70;;
13868;SDS011;7004;48.206;16.402;2024-03-02T05:30:37;111.03;;;38.60;;
13868;SDS011;7004;48.206;16.402;2024-03-02T05:33:10;102.97;;;37.40;;
13868;SDS011;7004;48.206;16.402;2024-03-02T05:35:39;106.67;;;38.97;;
13868;SDS011;7004;48.206;16.402;2024-03-02T05:38:09;72.43;;;37.37;;
13868;SDS011;7004;48.206;16.402;2024-03-02T05:40:40;78.23;;;36.87;;
13868;SDS011;7004;48.206;16.402;2024-03-02T05:43:09;85.57;;;38.63;;
13868;SDS011;7004;48.206;16.402;2024-03-02T05:45:35;67.83;;;36.50;;
13868;SDS011;7004;48.206;16.402;2024-03-02T05:48:08;75.07;;;38.17;;
13868;SDS011;7004;48.206;16.402;2024-03-02T05:50:54;89.07;;;38.13;;
13868;SDS011;7004;48.206;16.402;2024-03-02T05:53:21;84.87;;;35.80;;
13868;SDS011;7004;48.206;16.402;2024-03-02T05:55:48;112.07;;;37.07;;
13868;SDS011;7004;48.206;16.402;2024-03-02T05:58:18;74.77;;;37.40;;
13868;SDS011;7004;48.206;16.402;2024-03-02T06:01:03;74.57;;;38.50;;
13868;SDS011;7004;48.206;16.402;2024-03-02T06:03:32;87.07;;;40.13;;
13868;SDS011;7004;48.206;16.402;2024-03-02T06:05:59;91.00;;;40.07;;
13868;SDS011;7004;48.206;16.402;2024-03-02T06:08:25;105.97;;;39.83;;
13868;SDS011;7004;48.206;16.402;2024-03-02T06:10:52;68.10;;;39.53;;
13868;SDS011;7004;48.206;16.402;2024-03-02T06:13:18;112.23;;;42.60;;
13868;SDS011;7004;48.206;16.402;2024-03-02T06:15:44;88.47;;;42.10;;
13868;SDS011;7004;48.206;16.402;2024-03-02T06:18:10;158.37;;;41.90;;
13868;SDS011;7004;48.206;16.402;2024-03-02T06:20:36;101.57;;;44.03;;
13868;SDS011;7004;48.206;16.402;2024-03-02T06:23:02;124.13;;;41.47;;
13868;SDS011;7004;48.206;16.402;2024-03-02T06:25:29;117.73;;;42.90;;
13868;SDS011;7004;48.206;16.402;2024-03-02T06:27:56;99.87;;;44.13;;
13868;SDS011;7004;48.206;16.402;2024-03-02T06:30:22;100.73;;;46.07;;
13868;SDS011;7004;48.206;16.402;2024-03-02T06:32:48;128.33;;;45.50;;
13868;SDS011;7004;48.206;16.402;2024-03-02T06:35:14;109.23;;;46.97;;
13868;SDS011;7004;48.206;16.402;2024-03-02T06:37:40;139.43;;;44.20;;
13868;SDS011;7004;48.206;16.402;2024-03-02T06:40:06;84.73;;;41.80;;
13868;SDS011;7004;48.206;16.402;2024-03-02T06:42:37;165.30;;;45.50;;
13868;SDS011;7004;48.206;16.402;2024-03-02T06:45:03;89.73;;;43.23;;
13868;SDS011;7004;48.206;16.402;2024-03-02T06:47:30;141.13;;;44.97;;
13868;SDS011;7004;48.206;16.402;2024-03-02T06:49:56;99.37;;;46.33;;
13868;SDS011;7004;48.206;16.402;2024-03-02T06:52:24;121.33;;;44.63;;
13868;SDS011;7004;48.206;16.402;2024-03-02T06:54:50;113.30;;;47.40;;
13868;SDS011;7004;48.206;16.402;2024-03-02T06:57:16;90.53;;;43.90;;
13868;SDS011;7004;48.206;16.402;2024-03-02T06:59:42;106.30;;;44.87;;
13868;SDS011;7004;48.206;16.402;2024-03-02T07:02:08;102.73;;;44.90;;
13868;SDS011;7004;48.206;16.402;2024-03-02T07:04:34;95.90;;;44.77;;
13868;SDS011;7004;48.206;16.402;2024-03-02T07:07:00;88.23;;;44.00;;
13868;SDS011;7004;48.206;16.402;2024-03-02T07:09:26;81.50;;;42.77;;
13868;SDS011;7004;48.206;16.402;2024-03-02T07:11:53;80.93;;;41.53;;
13868;SDS011;7004;48.206;16.402;2024-03-02T07:14:19;103.67;;;43.67;;
13868;SDS011;7004;48.206;16.402;2024-03-02T07:16:45;110.53;;;46.13;;
13868;SDS011;7004;48.206;16.402;2024-03-02T07:19:11;116.20;;;46.50;;
13868;SDS011;7004;48.206;16.402;2024-03-02T07:21:37;89.33;;;43.33;;
13868;SDS011;7004;48.206;16.402;2024-03-02T07:24:41;87.10;;;43.60;;
13868;SDS011;7004;48.206;16.402;2024-03-02T07:27:10;93.63;;;45.40;;
13868;SDS011;7004;48.206;16.402;2024-03-02T07:29:38;86.17;;;43.13;;
13868;SDS011;7004;48.206;16.402;2024-03-02T07:32:05;84.27;;;42.93;;
13868;SDS011;7004;48.206;16.402;2024-03-02T07:34:33;91.03;;;42.77;;
13868;SDS011;7004;48.206;16.402;2024-03-02T07:36:59;88.30;;;42.27;;
13868;SDS011;7004;48.206;16.402;2024-03-02T07:39:26;79.60;;;38.67;;
13868;SDS011;7004;48.206;16.402;2024-03-02T07:41:52;96.10;;;43.83;;
13868;SDS011;7004;48.206;16.402;2024-03-02T07:44:19;91.07;;;42.43;;
13868;SDS011;7004;48.206;16.402;2024-03-02T07:46:46;94.73;;;40.00;;
13868;SDS011;7004;48.206;16.402;2024-03-02T07:49:13;84.20;;;39.73;;
13868;SDS011;7004;48.206;16.402;2024-03-02T07:51:39;77.97;;;40.33;;
13868;SDS011;7004;48.206;16.402;2024-03-02T07:54:05;73.47;;;39.20;;
13868;SDS011;7004;48.206;16.402;2024-03-02T07:56:31;83.77;;;39.13;;
13868;SDS011;7004;48.206;16.402;2024-03-02T07:58:57;86.83;;;39.37;;
13868;SDS011;7004;48.206;16.402;2024-03-02T08:01:27;77.60;;;40.87;;
13868;SDS011;7004;48.206;16.402;2024-03-02T08:03:56;75.23;;;41.27;;
13868;SDS011;7004;48.206;16.402;2024-03-02T08:06:24;71.27;;;38.83;;
13868;SDS011;7004;48.206;16.402;2024-03-02T08:08:54;69.03;;;38.57;;
13868;SDS011;7004;48.206;16.402;2024-03-02T08:11:24;67.23;;;37.50;;
13868;SDS011;7004;48.206;16.402;2024-03-02T08:13:52;64.40;;;38.77;;
13868;SDS011;7004;48.206;16.402;2024-03-02T08:16:23;61.13;;;38.17;;
13868;SDS011;7004;48.206;16.402;2024-03-02T08:18:52;78.10;;;41.53;;
13868;SDS011;7004;48.206;16.402;2024-03-02T08:21:18;63.90;;;36.77;;
13868;SDS011;7004;48.206;16.402;2024-03-02T08:23:44;62.27;;;37.63;;
13868;SDS011;7004;48.206;16.402;2024-03-02T08:26:11;62.50;;;37.17;;
13868;SDS011;7004;48.206;16.402;2024-03-02T08:28:37;66.47;;;37.03;;
13868;SDS011;7004;48.206;16.402;2024-03-02T08:31:06;70.40;;;39.93;;
13868;SDS011;7004;48.206;16.402;2024-03-02T08:33:33;66.70;;;38.07;;
13868;SDS011;7004;48.206;16.402;2024-03-02T08:35:59;64.53;;;36.43;;
13868;SDS011;7004;48.206;16.402;2024-03-02T08:38:25;61.67;;;37.77;;
13868;SDS011;7004;48.206;16.402;2024-03-02T08:40:52;65.43;;;39.13;;
13868;SDS011;7004;48.206;16.402;2024-03-02T08:43:19;67.63;;;38.67;;
13868;SDS011;7004;48.206;16.402;2024-03-02T08:45:45;64.63;;;38.17;;
13868;SDS011;7004;48.206;16.402;2024-03-02T08:48:12;66.47;;;38.17;;
13868;SDS011;7004;48.206;16.402;2024-03-02T08:50:38;57.93;;;36.63;;
13868;SDS011;7004;48.206;16.402;2024-03-02T08:53:04;56.90;;;35.83;;
13868;SDS011;7004;48.206;16.402;2024-03-02T08:55:31;52.50;;;34.80;;
13868;SDS011;7004;48.206;16.402;2024-03-02T08:57:57;59.83;;;36.93;;
13868;SDS011;7004;48.206;16.402;2024-03-02T09:00:23;55.50;;;35.57;;
13868;SDS011;7004;48.206;16.402;2024-03-02T09:02:50;56.27;;;34.63;;
13868;SDS011;7004;48.206;16.402;2024-03-02T09:05:16;56.13;;;36.63;;
13868;SDS011;7004;48.206;16.402;2024-03-02T09:07:42;54.60;;;35.30;;
13868;SDS011;7004;48.206;16.402;2024-03-02T09:10:08;55.77;;;34.07;;
13868;SDS011;7004;48.206;16.402;2024-03-02T09:12:35;55.73;;;36.00;;
13868;SDS011;7004;48.206;16.402;2024-03-02T09:15:03;53.33;;;34.83;;
13868;SDS011;7004;48.206;16.402;2024-03-02T09:17:31;58.50;;;36.13;;
13868;SDS011;7004;48.206;16.402;2024-03-02T09:19:58;60.83;;;38.80;;
13868;SDS011;7004;48.206;16.402;2024-03-02T09:22:24;53.13;;;35.10;;
13868;SDS011;7004;48.206;16.402;2024-03-02T09:24:50;55.73;;;35.53;;
13868;SDS011;7004;48.206;16.402;2024-03-02T09:27:16;55.40;;;37.10;;
13868;SDS011;7004;48.206;16.402;2024-03-02T09:29:42;56.40;;;37.10;;
13868;SDS011;7004;48.206;16.402;2024-03-02T09:32:12;59.03;;;36.57;;
13868;SDS011;7004;48.206;16.402;2024-03-02T09:34:39;55.50;;;35.43;;
13868;SDS011;7004;48.206;16.402;2024-03-02T09:37:06;54.93;;;37.97;;
13868;SDS011;7004;48.206;16.402;2024-03-02T09:39:32;57.23;;;38.13;;
13868;SDS011;7004;48.206;16.402;2024-03-02T09:42:00;58.13;;;38.40;;
13868;SDS011;7004;48.206;16.402;2024-03-02T09:44:26;61.00;;;38.80;;
13868;SDS011;7004;48.206;16.402;2024-03-02T09:46:52;64.87;;;42.33;;
13868;SDS011;7004;48.206;16.402;2024-03-02T09:49:18;66.47;;;43.00;;
13868;SDS011;7004;48.206;16.402;2024-03-02T09:51:46;72.80;;;44.50;;
13868;SDS011;7004;48.206;16.402;2024-03-02T09:54:17;65.43;;;41.73;;
13868;SDS011;7004;48.206;16.402;2024-03-02T09:56:43;67.73;;;42.87;;
13868;SDS011;7004;48.206;16.402;2024-03-02T09:59:10;60.80;;;41.67;;
13868;SDS011;7004;48.206;16.402;2024-03-02T10:01:37;69.33;;;44.53;;
13868;SDS011;7004;48.206;16.402;2024-03-02T10:04:03;65.10;;;43.63;;
13868;SDS011;7004;48.206;16.402;2024-03-02T10:06:31;65.53;;;44.13;;
13868;SDS011;7004;48.206;16.402;2024-03-02T10:08:57;64.33;;;42.87;;
13868;SDS011;7004;48.206;16.402;2024-03-02T10:14:09;65.27;;;42.70;;
13868;SDS011;7004;48.206;16.402;2024-03-02T10:16:41;66.17;;;41.67;;
13868;SDS011;7004;48.206;16.402;2024-03-02T10:19:16;65.70;;;42.27;;
13868;SDS011;7004;48.206;16.402;2024-03-02T10:21:47;64.57;;;41.43;;
13868;SDS011;7004;48.206;16.402;2024-03-02T10:24:15;67.87;;;44.87;;
13868;SDS011;7004;48.206;16.402;2024-03-02T10:26:49;65.13;;;42.67;;
13868;SDS011;7004;48.206;16.402;2024-03-02T10:29:15;58.27;;;40.17;;
13868;SDS011;7004;48.206;16.402;2024-03-02T10:31:43;61.77;;;41.00;;
13868;SDS011;7004;48.206;16.402;2024-03-02T10:34:13;63.27;;;41.20;;
13868;SDS011;7004;48.206;16.402;2024-03-02T10:36:40;57.90;;;40.43;;
13868;SDS011;7004;48.206;16.402;2024-03-02T10:39:08;63.37;;;42.33;;
13868;SDS011;7004;48.206;16.402;2024-03-02T10:41:35;60.87;;;41.90;;
13868;SDS011;7004;48.206;16.402;2024-03-02T10:44:04;65.37;;;42.63;;
13868;SDS011;7004;48.206;16.402;2024-03-02T10:46:38;60.17;;;40.77;;
13868;SDS011;7004;48.206;16.402;2024-03-02T10:49:04;59.93;;;42.00;;
13868;SDS011;7004;48.206;16.402;2024-03-02T10:51:32;65.57;;;41.60;;
13868;SDS011;7004;48.206;16.402;2024-03-02T10:54:02;58.43;;;40.37;;
13868;SDS011;7004;48.206;16.402;2024-03-02T10:56:30;52.33;;;36.63;;
13868;SDS011;7004;48.206;16.402;2024-03-02T10:59:16;55.53;;;37.73;;
13868;SDS011;7004;48.206;16.402;2024-03-02T11:02:02;57.00;;;40.00;;
13868;SDS011;7004;48.206;16.402;2024-03-02T11:04:32;44.23;;;31.77;;
13868;SDS011;7004;48.206;16.402;2024-03-02T11:09:35;53.40;;;37.43;;
13868;SDS011;7004;48.206;16.402;2024-03-02T11:14:55;47.33;;;34.47;;
13868;SDS011;7004;48.206;16.402;2024-03-02T11:17:22;49.53;;;35.83;;
13868;SDS011;7004;48.206;16.402;2024-03-02T11:19:50;49.03;;;35.37;;
13868;SDS011;7004;48.206;16.402;2024-03-02T11:22:16;48.13;;;34.23;;
13868;SDS011;7004;48.206;16.402;2024-03-02T11:24:50;53.43;;;37.30;;
13868;SDS011;7004;48.206;16.402;2024-03-02T11:35:30;60.47;;;40.53;;
13868;SDS011;7004;48.206;16.402;2024-03-02T11:37:57;60.13;;;40.30;;
13868;SDS011;7004;48.206;16.402;2024-03-02T11:40:26;55.27;;;38.80;;
13868;SDS011;7004;48.206;16.402;2024-03-02T11:42:53;61.80;;;42.27;;
13868;SDS011;7004;48.206;16.402;2024-03-02T11:45:24;61.23;;;39.77;;
13868;SDS011;7004;48.206;16.402;2024-03-02T11:47:51;66.03;;;43.20;;
13868;SDS011;7004;48.206;16.402;2024-03-02T11:50:34;59.00;;;41.83;;
13868;SDS011;7004;48.206;16.402;2024-03-02T11:53:06;59.60;;;41.43;;
13868;SDS011;7004;48.206;16.402;2024-03-02T11:55:39;59.80;;;42.23;;
13868;SDS011;7004;48.206;16.402;2024-03-02T11:58:06;62.03;;;41.53;;
13868;SDS011;7004;48.206;16.402;2024-03-02T12:00:33;61.17;;;42.07;;
13868;SDS011;7004;48.206;16.402;2024-03-02T12:03:09;59.17;;;41.37;;
13868;SDS011;7004;48.206;16.402;2024-03-02T12:05:38;63.43;;;42.03;;
13868;SDS011;7004;48.206;16.402;2024-03-02T12:08:06;63.33;;;42.00;;
13868;SDS011;7004;48.206;16.402;2024-03-02T12:10:33;65.43;;;42.73;;
13868;SDS011;7004;48.206;16.402;2024-03-02T12:13:31;63.90;;;41.60;;
13868;SDS011;7004;48.206;16.402;2024-03-02T12:16:03;63.80;;;42.87;;
13868;SDS011;7004;48.206;16.402;2024-03-02T12:18:54;63.60;;;43.87;;
13868;SDS011;7004;48.206;16.402;2024-03-02T12:21:21;65.37;;;44.10;;
13868;SDS011;7004;48.206;16.402;2024-03-02T12:23:47;66.70;;;43.20;;
13868;SDS011;7004;48.206;16.402;2024-03-02T12:26:15;62.80;;;42.57;;
13868;SDS011;7004;48.206;16.402;2024-03-02T12:28:41;60.43;;;41.80;;
13868;SDS011;7004;48.206;16.402;2024-03-02T12:31:08;67.20;;;44.90;;
13868;SDS011;7004;48.206;16.402;2024-03-02T12:33:34;62.00;;;41.87;;
13868;SDS011;7004;48.206;16.402;2024-03-02T12:36:00;60.07;;;42.33;;
13868;SDS011;7004;48.206;16.402;2024-03-02T12:38:26;57.40;;;42.63;;
13868;SDS011;7004;48.206;16.402;2024-03-02T12:40:54;58.70;;;39.57;;
13868;SDS011;7004;48.206;16.402;2024-03-02T12:43:20;59.20;;;41.00;;
13868;SDS011;7004;48.206;16.402;2024-03-02T12:45:46;55.87;;;39.00;;
13868;SDS011;7004;48.206;16.402;2024-03-02T12:48:12;55.10;;;40.60;;
13868;SDS011;7004;48.206;16.402;2024-03-02T12:50:39;52.43;;;38.20;;
13868;SDS011;7004;48.206;16.402;2024-03-02T12:53:05;52.77;;;37.47;;
13868;SDS011;7004;48.206;16.402;2024-03-02T12:55:31;51.10;;;36.60;;
13868;SDS011;7004;48.206;16.402;2024-03-02T12:57:57;54.20;;;38.20;;
13868;SDS011;7004;48.206;16.402;2024-03-02T13:00:24;53.87;;;37.63;;
13868;SDS011;7004;48.206;16.402;2024-03-02T13:02:50;53.23;;;34.57;;
13868;SDS011;7004;48.206;16.402;2024-03-02T13:05:16;53.43;;;36.87;;
13868;SDS011;7004;48.206;16.402;2024-03-02T13:07:43;49.30;;;36.13;;
13868;SDS011;7004;48.206;16.402;2024-03-02T13:10:10;49.27;;;35.63;;
13868;SDS011;7004;48.206;16.402;2024-03-02T13:12:38;48.67;;;35.77;;
13868;SDS011;7004;48.206;16.402;2024-03-02T13:15:04;51.97;;;35.00;;
13868;SDS011;7004;48.206;16.402;2024-03-02T13:17:31;47.53;;;35.23;;
13868;SDS011;7004;48.206;16.402;2024-03-02T13:20:00;49.53;;;35.23;;
13868;SDS011;7004;48.206;16.402;2024-03-02T13:22:28;44.87;;;34.73;;
13868;SDS011;7004;48.206;16.402;2024-03-02T13:24:54;49.20;;;34.80;;
13868;SDS011;7004;48.206;16.402;2024-03-02T13:27:20;50.13;;;35.63;;
13868;SDS011;7004;48.206;16.402;2024-03-02T13:29:47;45.73;;;34.10;;
13868;SDS011;7004;48.206;16.402;2024-03-02T13:32:14;45.03;;;34.93;;
13868;SDS011;7004;48.206;16.402;2024-03-02T13:34:41;48.60;;;34.10;;
13868;SDS011;7004;48.206;16.402;2024-03-02T13:37:08;49.33;;;35.17;;
13868;SDS011;7004;48.206;16.402;2024-03-02T13:39:35;46.27;;;32.80;;
13868;SDS011;7004;48.206;16.402;2024-03-02T13:42:08;51.57;;;33.53;;
13868;SDS011;7004;48.206;16.402;2024-03-02T13:44:36;47.50;;;34.33;;
13868;SDS011;7004;48.206;16.402;2024-03-02T13:47:03;43.40;;;31.77;;
13868;SDS011;7004;48.206;16.402;2024-03-02T13:49:30;51.40;;;34.17;;
13868;SDS011;7004;48.206;16.402;2024-03-02T13:52:05;45.77;;;34.87;;
13868;SDS011;7004;48.206;16.402;2024-03-02T13:54:43;47.17;;;33.63;;
13868;SDS011;7004;48.206;16.402;2024-03-02T13:57:13;48.80;;;35.90;;
13868;SDS011;7004;48.206;16.402;2024-03-02T13:59:40;50.83;;;35.93;;
13868;SDS011;7004;48.206;16.402;2024-03-02T14:02:07;50.30;;;34.80;;
13868;SDS011;7004;48.206;16.402;2024-03-02T14:04:35;43.80;;;32.03;;
13868;SDS011;7004;48.206;16.402;2024-03-02T14:07:01;49.57;;;35.27;;
13868;SDS011;7004;48.206;16.402;2024-03-02T14:09:30;48.67;;;34.57;;
13868;SDS011;7004;48.206;16.402;2024-03-02T14:11:56;51.77;;;37.10;;
13868;SDS011;7004;48.206;16.402;2024-03-02T14:14:22;49.40;;;38.07;;
13868;SDS011;7004;48.206;16.402;2024-03-02T14:16:49;50.10;;;37.53;;
13868;SDS011;7004;48.206;16.402;2024-03-02T14:19:15;49.90;;;36.60;;
13868;SDS011;7004;48.206;16.402;2024-03-02T14:21:42;51.70;;;37.90;;
13868;SDS011;7004;48.206;16.402;2024-03-02T14:24:09;51.97;;;37.37;;
13868;SDS011;7004;48.206;16.402;2024-03-02T14:26:35;50.67;;;35.27;;
13868;SDS011;7004;48.206;16.402;2024-03-02T14:29:02;53.87;;;35.47;;
13868;SDS011;7004;48.206;16.402;2024-03-02T14:31:29;48.17;;;35.60;;
13868;SDS011;7004;48.206;16.402;2024-03-02T14:33:59;50.20;;;36.40;;
13868;SDS011;7004;48.206;16.402;2024-03-02T14:36:29;53.80;;;37.67;;
13868;SDS011;7004;48.206;16.402;2024-03-02T14:38:55;56.70;;;38.63;;
13868;SDS011;7004;48.206;16.402;2024-03-02T14:41:21;56.23;;;39.60;;
13868;SDS011;7004;48.206;16.402;2024-03-02T14:43:49;59.27;;;40.43;;
13868;SDS011;7004;48.206;16.402;2024-03-02T14:46:16;52.57;;;37.40;;
13868;SDS011;7004;48.206;16.402;2024-03-02T14:48:43;54.10;;;38.00;;